Time;durP1;ratioP1;P1;durP2;ratioP2;P2;SDS_P1;SDS_P2;PMS_P1;PMS_P2;Temp;Humidity;BMP_temperature;BMP_pressure;BME280_temperature;BME280_humidity;BME280_pressure;Samples;Min_cycle;Max_cycle;Signal;HPM_P1;HPM_P2
2022/12/28 00:01:04;;;;;;;;;;;17.30;83.30;;;;;;5115234;28;20372;-42
2022/12/28 00:03:29;;;;;;;;;;;17.20;83.10;;;;;;5114925;28;19915;-45
2022/12/28 00:05:55;;;;;;;;;;;17.30;83.10;;;;;;5115181;28;19908;-43
2022/12/28 00:08:20;;;;;;;;;;;17.30;83.10;;;;;;5114807;28;19915;-43
2022/12/28 00:10:45;;;;;;;;;;;17.30;83.00;;;;;;5114723;28;20336;-43
2022/12/28 00:13:11;;;;;;;;;;;17.30;83.00;;;;;;5114697;28;19914;-42
2022/12/28 00:15:37;;;;;;;;;;;17.40;83.00;;;;;;5114365;28;19916;-43
2022/12/28 00:18:02;;;;;;;;;;;17.30;82.90;;;;;;5114395;28;19911;-43
2022/12/28 00:20:28;;;;;;;;;;;17.40;82.90;;;;;;5114357;28;19911;-43
2022/12/28 00:22:53;;;;;;;;;;;17.40;82.90;;;;;;5114559;28;19954;-43
2022/12/28 00:25:18;;;;;;;;;;;17.40;82.90;;;;;;5114320;28;19912;-42
2022/12/28 00:27:44;;;;;;;;;;;17.40;82.90;;;;;;5114281;28;19908;-43
2022/12/28 00:30:10;;;;;;;;;;;17.40;82.90;;;;;;5114264;28;20380;-42
2022/12/28 00:32:35;;;;;;;;;;;17.40;83.00;;;;;;5114643;28;19915;-42
2022/12/28 00:35:01;;;;;;;;;;;17.30;82.90;;;;;;5114216;28;20087;-44
2022/12/28 00:37:26;;;;;;;;;;;17.40;83.00;;;;;;5114288;28;20377;-44
2022/12/28 00:39:52;;;;;;;;;;;17.40;83.00;;;;;;5116691;28;19907;-43
2022/12/28 00:42:17;;;;;;;;;;;17.40;83.00;;;;;;5118813;28;19908;-43
2022/12/28 00:44:43;;;;;;;;;;;17.30;82.90;;;;;;5118409;28;19908;-43
2022/12/28 00:47:09;;;;;;;;;;;17.30;83.00;;;;;;5118574;28;19908;-43
2022/12/28 00:49:34;;;;;;;;;;;17.30;83.00;;;;;;5118527;28;19995;-42
2022/12/28 00:52:00;;;;;;;;;;;17.30;83.00;;;;;;5118531;28;19912;-44
2022/12/28 00:54:25;;;;;;;;;;;17.30;83.00;;;;;;5118496;28;20026;-44
2022/12/28 00:56:51;;;;;;;;;;;17.30;83.00;;;;;;5118291;28;19984;-43
2022/12/28 00:59:16;;;;;;;;;;;17.30;83.00;;;;;;5118167;28;19943;-46
2022/12/28 01:01:42;;;;;;;;;;;17.30;82.90;;;;;;5118214;28;19998;-44
2022/12/28 01:04:07;;;;;;;;;;;17.30;83.50;;;;;;5117983;28;20378;-43
2022/12/28 01:06:33;;;;;;;;;;;17.40;83.00;;;;;;5117889;28;19969;-44
2022/12/28 01:08:58;;;;;;;;;;;17.30;82.80;;;;;;5118311;28;19908;-46
2022/12/28 01:11:25;;;;;;;;;;;17.40;82.80;;;;;;5117991;28;19908;-44
2022/12/28 01:13:51;;;;;;;;;;;17.40;82.80;;;;;;5117868;28;19963;-43
2022/12/28 01:16:25;;;;;;;;;;;17.40;82.80;;;;;;5118459;28;19943;-46
2022/12/28 01:18:51;;;;;;;;;;;17.40;82.80;;;;;;5117986;28;19908;-44
2022/12/28 01:21:18;;;;;;;;;;;17.40;82.70;;;;;;5118089;28;19914;-44
2022/12/28 01:23:45;;;;;;;;;;;17.40;82.70;;;;;;5118026;28;20350;-43
2022/12/28 01:26:10;;;;;;;;;;;17.40;82.70;;;;;;5117721;28;19915;-44
2022/12/28 01:28:36;;;;;;;;;;;17.40;82.70;;;;;;5099720;28;19912;-44
2022/12/28 01:31:06;;;;;;;;;;;17.40;82.80;;;;;;5118255;28;19962;-44
2022/12/28 01:33:32;;;;;;;;;;;17.40;82.80;;;;;;5117838;28;20387;-46
2022/12/28 01:35:57;;;;;;;;;;;17.40;82.80;;;;;;5117708;28;19916;-42
2022/12/28 01:38:23;;;;;;;;;;;17.40;82.80;;;;;;5099161;28;19927;-44
2022/12/28 01:40:48;;;;;;;;;;;17.30;82.80;;;;;;5117689;28;19908;-45
2022/12/28 01:43:14;;;;;;;;;;;17.40;82.80;;;;;;5117966;28;19915;-43
2022/12/28 01:45:41;;;;;;;;;;;17.40;82.80;;;;;;5117328;28;19915;-44
2022/12/28 01:48:15;;;;;;;;;;;17.40;82.80;;;;;;5117251;28;20358;-45
2022/12/28 01:50:41;;;;;;;;;;;17.40;82.80;;;;;;5116942;28;19908;-46
2022/12/28 01:53:06;;;;;;;;;;;17.40;82.90;;;;;;5117155;28;19908;-45
2022/12/28 01:55:33;;;;;;;;;;;17.30;82.80;;;;;;5117421;28;19923;-42
2022/12/28 01:58:08;;;;;;;;;;;17.30;82.90;;;;;;5117064;28;19995;-45
2022/12/28 02:00:34;;;;;;;;;;;17.40;82.90;;;;;;5117318;28;19978;-44
2022/12/28 02:03:03;;;;;;;;;;;17.30;82.80;;;;;;5117217;28;20363;-45
2022/12/28 02:05:30;;;;;;;;;;;17.30;82.80;;;;;;5116883;28;20454;-44
2022/12/28 02:08:02;;;;;;;;;;;17.40;82.80;;;;;;5117434;28;19946;-43
2022/12/28 02:10:28;;;;;;;;;;;17.40;82.70;;;;;;5116850;28;20328;-42
2022/12/28 02:12:55;;;;;;;;;;;17.40;82.60;;;;;;5117073;28;19908;-43
2022/12/28 02:15:21;;;;;;;;;;;17.50;82.60;;;;;;5116688;28;20290;-42
2022/12/28 02:17:46;;;;;;;;;;;17.40;82.50;;;;;;5117215;28;19907;-45
2022/12/28 02:20:13;;;;;;;;;;;17.40;82.50;;;;;;5117313;28;20007;-44
2022/12/28 02:22:57;;;;;;;;;;;17.50;82.50;;;;;;5116781;28;20423;-48
2022/12/28 02:25:22;;;;;;;;;;;17.40;82.50;;;;;;5116833;28;19940;-46
2022/12/28 02:27:58;;;;;;;;;;;17.40;82.60;;;;;;5116465;28;19963;-42
2022/12/28 02:30:24;;;;;;;;;;;17.40;82.60;;;;;;5116789;28;19907;-43
2022/12/28 02:32:53;;;;;;;;;;;17.40;82.60;;;;;;5116387;28;19961;-44
2022/12/28 02:35:37;;;;;;;;;;;17.40;82.70;;;;;;5116612;28;19919;-44
2022/12/28 02:38:05;;;;;;;;;;;17.40;82.70;;;;;;5116562;28;19924;-44
2022/12/28 02:40:37;;;;;;;;;;;17.40;82.70;;;;;;5116167;28;19960;-44
2022/12/28 02:43:02;;;;;;;;;;;17.40;82.70;;;;;;5116280;28;19915;-44
2022/12/28 02:51:38;;;;;;;;;;;17.40;82.80;;;;;;5116399;28;20003;-44
2022/12/28 02:54:09;;;;;;;;;;;17.40;82.80;;;;;;5116301;28;19916;-44
2022/12/28 02:56:38;;;;;;;;;;;17.40;82.80;;;;;;5116071;28;19957;-44
2022/12/28 02:59:19;;;;;;;;;;;17.30;82.80;;;;;;5115890;28;20247;-44
2022/12/28 03:01:47;;;;;;;;;;;17.30;82.80;;;;;;5116147;28;20006;-42
2022/12/28 03:04:15;;;;;;;;;;;17.30;82.90;;;;;;5114727;28;19915;-43
2022/12/28 03:09:52;;;;;;;;;;;17.30;82.80;;;;;;5115785;28;19938;-43
2022/12/28 03:12:28;;;;;;;;;;;17.30;82.80;;;;;;5115940;28;19912;-44
2022/12/28 03:15:28;;;;;;;;;;;17.40;82.80;;;;;;5115785;28;19915;-46
2022/12/28 03:32:02;;;;;;;;;;;17.40;82.50;;;;;;5115270;28;19946;-43
2022/12/28 03:34:27;;;;;;;;;;;17.40;82.50;;;;;;5115095;28;20400;-44
2022/12/28 03:36:56;;;;;;;;;;;17.40;82.50;;;;;;5115411;28;19908;-45
2022/12/28 03:39:33;;;;;;;;;;;17.40;82.60;;;;;;5115542;28;19920;-44
2022/12/28 03:44:52;;;;;;;;;;;17.40;82.70;;;;;;5115083;28;19919;-42
2022/12/28 03:47:20;;;;;;;;;;;17.40;82.70;;;;;;5114891;28;19912;-43
2022/12/28 03:49:45;;;;;;;;;;;17.30;82.70;;;;;;5114875;28;19908;-44
2022/12/28 03:52:11;;;;;;;;;;;17.30;82.70;;;;;;5115193;28;19930;-44
2022/12/28 03:54:38;;;;;;;;;;;17.30;82.70;;;;;;5096877;28;19916;-43
2022/12/28 03:57:03;;;;;;;;;;;17.30;82.80;;;;;;5115448;28;19914;-44
2022/12/28 03:59:29;;;;;;;;;;;17.30;82.80;;;;;;5114759;28;19908;-44
2022/12/28 04:01:54;;;;;;;;;;;17.30;82.80;;;;;;5079789;28;19908;-42
2022/12/28 04:04:20;;;;;;;;;;;17.30;82.80;;;;;;5114948;28;19908;-46
2022/12/28 04:06:45;;;;;;;;;;;17.30;82.80;;;;;;5114636;28;19951;-45
2022/12/28 04:09:11;;;;;;;;;;;17.30;82.90;;;;;;5114870;28;20359;-44
2022/12/28 04:11:36;;;;;;;;;;;17.30;82.90;;;;;;5114587;28;19907;-43
2022/12/28 04:14:02;;;;;;;;;;;17.30;82.90;;;;;;5114078;28;19916;-43
2022/12/28 04:16:28;;;;;;;;;;;17.30;82.90;;;;;;5114477;28;19916;-43
2022/12/28 04:18:53;;;;;;;;;;;17.40;82.90;;;;;;5114698;28;20376;-46
2022/12/28 04:21:19;;;;;;;;;;;17.40;82.80;;;;;;5114387;28;19908;-43
2022/12/28 04:23:44;;;;;;;;;;;17.40;82.70;;;;;;5114592;28;19908;-44
2022/12/28 04:26:11;;;;;;;;;;;17.40;82.70;;;;;;5115017;28;19907;-44
2022/12/28 04:28:37;;;;;;;;;;;17.40;82.60;;;;;;5114628;28;19908;-43
2022/12/28 04:31:03;;;;;;;;;;;17.40;82.60;;;;;;5096332;28;19914;-45
2022/12/28 04:33:31;;;;;;;;;;;17.50;82.60;;;;;;5114290;28;19919;-44
2022/12/28 04:36:03;;;;;;;;;;;17.40;82.50;;;;;;5114360;28;19916;-43
2022/12/28 04:38:28;;;;;;;;;;;17.40;82.50;;;;;;5114693;28;19946;-43
2022/12/28 04:40:55;;;;;;;;;;;17.50;82.50;;;;;;5113750;28;20305;-45
2022/12/28 04:43:21;;;;;;;;;;;17.40;82.50;;;;;;5114462;28;19954;-46
2022/12/28 04:45:54;;;;;;;;;;;17.40;82.50;;;;;;5114194;28;19954;-44
2022/12/28 04:48:19;;;;;;;;;;;17.40;82.50;;;;;;5114414;28;19994;-44
2022/12/28 04:50:44;;;;;;;;;;;17.40;82.50;;;;;;5114277;28;20385;-47
2022/12/28 04:53:10;;;;;;;;;;;17.40;82.60;;;;;;5114067;28;20277;-44
2022/12/28 04:55:35;;;;;;;;;;;17.40;82.60;;;;;;5114259;28;19949;-44
2022/12/28 04:58:02;;;;;;;;;;;17.30;82.60;;;;;;5114017;28;19918;-43
2022/12/28 05:00:28;;;;;;;;;;;17.40;82.60;;;;;;5114334;28;19907;-43
2022/12/28 05:02:53;;;;;;;;;;;17.40;82.70;;;;;;5113997;28;19908;-45
2022/12/28 05:05:18;;;;;;;;;;;17.30;82.70;;;;;;5095913;28;19931;-43
2022/12/28 05:07:44;;;;;;;;;;;17.30;82.70;;;;;;5114167;28;19908;-45
2022/12/28 05:10:09;;;;;;;;;;;17.30;82.70;;;;;;5113892;28;19999;-46
2022/12/28 05:12:35;;;;;;;;;;;17.30;82.80;;;;;;5114110;28;19915;-44
2022/12/28 05:15:00;;;;;;;;;;;17.20;82.80;;;;;;5113929;28;20006;-45
2022/12/28 05:17:26;;;;;;;;;;;17.20;83.30;;;;;;5114072;28;19912;-44
2022/12/28 05:19:51;;;;;;;;;;;17.30;82.80;;;;;;5114050;28;19908;-46
2022/12/28 05:22:17;;;;;;;;;;;17.30;82.80;;;;;;5114048;28;19994;-44
2022/12/28 05:24:42;;;;;;;;;;;17.30;82.80;;;;;;5113925;28;20002;-46
2022/12/28 05:27:08;;;;;;;;;;;17.30;82.80;;;;;;5116065;28;19957;-43
2022/12/28 05:29:33;;;;;;;;;;;17.30;82.70;;;;;;5099554;28;19914;-44
2022/12/28 05:31:59;;;;;;;;;;;17.30;82.70;;;;;;5117532;28;19934;-45
2022/12/28 05:34:24;;;;;;;;;;;17.40;82.70;;;;;;5117692;28;19911;-44
2022/12/28 05:36:50;;;;;;;;;;;17.40;82.60;;;;;;5117414;28;19915;-44
2022/12/28 05:39:15;;;;;;;;;;;17.40;82.60;;;;;;5117834;28;19927;-42
2022/12/28 05:41:41;;;;;;;;;;;17.50;82.60;;;;;;5117927;28;19955;-46
2022/12/28 05:44:06;;;;;;;;;;;17.50;82.60;;;;;;5117602;28;19915;-44
2022/12/28 05:46:32;;;;;;;;;;;17.40;82.50;;;;;;5117280;28;19908;-43
2022/12/28 05:48:58;;;;;;;;;;;17.40;82.50;;;;;;5117204;28;20497;-44
2022/12/28 05:51:25;;;;;;;;;;;17.40;82.50;;;;;;5117389;28;19907;-44
2022/12/28 05:53:50;;;;;;;;;;;17.40;82.50;;;;;;5098941;28;19908;-44
2022/12/28 05:56:20;;;;;;;;;;;17.40;82.50;;;;;;5117356;28;19919;-43
2022/12/28 05:58:51;;;;;;;;;;;17.40;82.60;;;;;;5117063;28;20266;-47
2022/12/28 06:01:18;;;;;;;;;;;17.40;82.60;;;;;;5117165;28;19908;-45
2022/12/28 06:03:43;;;;;;;;;;;17.40;82.60;;;;;;5116918;28;20007;-43
2022/12/28 06:06:13;;;;;;;;;;;17.40;82.60;;;;;;5116801;28;19943;-44
2022/12/28 06:08:39;;;;;;;;;;;17.40;82.60;;;;;;5117227;28;19962;-47
2022/12/28 06:11:06;;;;;;;;;;;17.40;82.70;;;;;;5116941;28;19908;-43
2022/12/28 06:13:32;;;;;;;;;;;17.40;82.70;;;;;;5116657;28;20359;-43
2022/12/28 06:15:58;;;;;;;;;;;17.30;82.70;;;;;;5116573;28;19912;-46
2022/12/28 06:18:27;;;;;;;;;;;17.30;82.70;;;;;;5116892;28;19912;-43
2022/12/28 06:20:52;;;;;;;;;;;17.30;82.70;;;;;;5116812;28;19908;-44
2022/12/28 06:23:18;;;;;;;;;;;17.30;82.80;;;;;;5116816;28;19966;-44
2022/12/28 06:25:44;;;;;;;;;;;17.20;82.70;;;;;;5116491;28;19915;-46
2022/12/28 06:28:09;;;;;;;;;;;17.30;82.80;;;;;;5116728;28;20361;-43
2022/12/28 06:30:35;;;;;;;;;;;17.30;82.80;;;;;;5116302;28;19908;-47
2022/12/28 06:33:00;;;;;;;;;;;17.30;82.80;;;;;;5116608;28;20421;-44
2022/12/28 06:35:26;;;;;;;;;;;17.30;82.80;;;;;;5116100;28;19919;-44
2022/12/28 06:37:51;;;;;;;;;;;17.30;82.70;;;;;;5116096;28;19973;-44
2022/12/28 06:40:17;;;;;;;;;;;17.30;82.70;;;;;;5116411;28;19950;-43
2022/12/28 06:42:42;;;;;;;;;;;17.30;82.60;;;;;;5116466;28;19953;-48
2022/12/28 06:45:08;;;;;;;;;;;17.30;82.60;;;;;;5116144;28;19912;-44
2022/12/28 06:47:35;;;;;;;;;;;17.30;82.50;;;;;;5116008;28;19961;-44
2022/12/28 06:50:02;;;;;;;;;;;17.40;82.50;;;;;;5116526;28;19950;-44
2022/12/28 06:52:27;;;;;;;;;;;17.40;82.50;;;;;;5116211;28;19908;-45
2022/12/28 06:54:53;;;;;;;;;;;17.40;82.50;;;;;;5097882;28;19923;-44
2022/12/28 06:57:18;;;;;;;;;;;17.40;82.50;;;;;;5115951;28;19920;-45
2022/12/28 06:59:44;;;;;;;;;;;17.40;82.60;;;;;;5116056;28;19909;-43
2022/12/28 07:02:09;;;;;;;;;;;17.40;82.60;;;;;;5116079;28;19942;-44
2022/12/28 07:04:35;;;;;;;;;;;17.40;82.60;;;;;;5115880;28;20350;-43
2022/12/28 07:07:00;;;;;;;;;;;17.40;82.60;;;;;;5115571;28;19908;-43
2022/12/28 07:09:25;;;;;;;;;;;17.40;83.10;;;;;;5097477;28;19991;-47
2022/12/28 07:11:51;;;;;;;;;;;17.40;82.60;;;;;;5115358;28;20338;-44
2022/12/28 07:14:17;;;;;;;;;;;17.40;82.60;;;;;;5115523;28;19916;-44
2022/12/28 07:16:43;;;;;;;;;;;17.40;82.60;;;;;;5115061;28;19908;-49
2022/12/28 07:19:09;;;;;;;;;;;17.30;82.60;;;;;;5115552;28;19919;-45
2022/12/28 07:21:36;;;;;;;;;;;17.40;82.70;;;;;;5115410;28;19908;-45
2022/12/28 07:24:03;;;;;;;;;;;17.30;82.70;;;;;;5115558;28;20410;-44
2022/12/28 07:26:30;;;;;;;;;;;17.30;82.70;;;;;;5097264;28;19911;-45
2022/12/28 07:28:56;;;;;;;;;;;17.40;82.70;;;;;;5115466;28;19962;-45
2022/12/28 07:31:26;;;;;;;;;;;17.30;82.70;;;;;;5115402;28;20350;-43
2022/12/28 07:33:54;;;;;;;;;;;17.30;82.70;;;;;;5115248;28;19907;-43
2022/12/28 07:36:20;;;;;;;;;;;17.30;82.60;;;;;;5115292;28;19998;-47
2022/12/28 07:38:46;;;;;;;;;;;17.30;82.60;;;;;;5115225;28;20204;-44
2022/12/28 07:41:13;;;;;;;;;;;17.40;82.70;;;;;;5115193;28;19953;-45
2022/12/28 07:43:38;;;;;;;;;;;17.30;82.60;;;;;;5114797;28;20034;-44
2022/12/28 07:46:06;;;;;;;;;;;17.30;82.50;;;;;;5114629;28;19946;-43
2022/12/28 07:48:32;;;;;;;;;;;17.40;82.60;;;;;;5114396;28;20018;-43
2022/12/28 07:51:03;;;;;;;;;;;17.30;82.50;;;;;;5114921;28;19931;-43
2022/12/28 07:53:29;;;;;;;;;;;17.40;82.50;;;;;;5115003;28;19907;-43
2022/12/28 07:55:55;;;;;;;;;;;17.40;82.50;;;;;;5114457;28;19922;-45
2022/12/28 07:58:22;;;;;;;;;;;17.30;82.50;;;;;;5114834;28;19929;-45
2022/12/28 08:00:47;;;;;;;;;;;17.40;82.50;;;;;;5114885;28;19912;-43
2022/12/28 08:03:13;;;;;;;;;;;17.40;82.50;;;;;;5114859;28;19915;-44
2022/12/28 08:05:38;;;;;;;;;;;17.40;82.50;;;;;;5114827;28;19919;-48
2022/12/28 08:08:04;;;;;;;;;;;17.40;82.50;;;;;;5114495;28;19915;-42
2022/12/28 08:10:29;;;;;;;;;;;17.30;82.50;;;;;;5114547;28;19934;-44
2022/12/28 08:12:54;;;;;;;;;;;17.40;82.50;;;;;;5114496;28;19908;-44
2022/12/28 08:15:20;;;;;;;;;;;17.40;82.60;;;;;;5114722;28;19919;-42
2022/12/28 08:17:45;;;;;;;;;;;17.40;82.60;;;;;;5114528;28;20357;-43
2022/12/28 08:20:11;;;;;;;;;;;17.40;82.60;;;;;;5114567;28;19907;-43
2022/12/28 08:22:36;;;;;;;;;;;17.30;82.60;;;;;;5096130;28;20053;-42
2022/12/28 08:25:02;;;;;;;;;;;17.40;82.70;;;;;;5114414;28;19908;-43
2022/12/28 08:27:27;;;;;;;;;;;17.40;82.70;;;;;;5114128;28;19908;-45
2022/12/28 08:29:53;;;;;;;;;;;17.30;82.70;;;;;;5114131;28;20282;-46
2022/12/28 08:32:18;;;;;;;;;;;17.30;82.70;;;;;;5114388;28;19912;-42
2022/12/28 08:34:44;;;;;;;;;;;17.30;82.70;;;;;;5114470;28;20014;-45
2022/12/28 08:37:09;;;;;;;;;;;17.40;82.70;;;;;;5114436;28;19965;-43
2022/12/28 08:39:34;;;;;;;;;;;17.40;82.70;;;;;;5113901;28;19955;-44
2022/12/28 08:42:00;;;;;;;;;;;17.40;82.60;;;;;;5113994;28;19915;-44
2022/12/28 08:44:25;;;;;;;;;;;17.40;82.60;;;;;;5114078;28;19922;-43
2022/12/28 08:46:53;;;;;;;;;;;17.40;82.60;;;;;;5114048;28;19908;-43
2022/12/28 08:49:18;;;;;;;;;;;17.40;82.60;;;;;;5095883;28;19912;-42
2022/12/28 08:51:43;;;;;;;;;;;17.40;82.50;;;;;;5114287;28;19931;-43
2022/12/28 08:54:10;;;;;;;;;;;17.40;82.50;;;;;;5113644;28;19914;-42
2022/12/28 08:56:37;;;;;;;;;;;17.40;82.40;;;;;;5114086;28;19930;-43
2022/12/28 08:59:03;;;;;;;;;;;17.50;82.50;;;;;;5113806;28;19908;-44
2022/12/28 09:01:29;;;;;;;;;;;17.40;82.40;;;;;;5115133;28;19912;-45
2022/12/28 09:03:57;;;;;;;;;;;17.40;82.40;;;;;;5118231;28;19908;-43
2022/12/28 09:06:33;;;;;;;;;;;17.40;82.40;;;;;;5118258;28;19911;-46
2022/12/28 09:08:59;;;;;;;;;;;17.40;82.40;;;;;;5118098;28;20354;-45
2022/12/28 09:11:25;;;;;;;;;;;17.40;82.40;;;;;;5117827;28;19994;-43
2022/12/28 09:13:50;;;;;;;;;;;17.40;82.40;;;;;;5117792;28;19992;-45
2022/12/28 09:16:22;;;;;;;;;;;17.40;82.40;;;;;;5118077;28;19919;-44
2022/12/28 09:18:51;;;;;;;;;;;17.40;82.50;;;;;;5099673;28;19954;-45
2022/12/28 09:21:18;;;;;;;;;;;17.40;82.50;;;;;;5117974;28;19908;-44
2022/12/28 09:23:45;;;;;;;;;;;17.40;82.50;;;;;;5117896;28;20412;-44
2022/12/28 09:26:12;;;;;;;;;;;17.40;82.60;;;;;;5117857;28;20239;-42
2022/12/28 09:28:38;;;;;;;;;;;17.40;82.60;;;;;;5117430;28;20355;-44
2022/12/28 09:31:04;;;;;;;;;;;17.40;82.60;;;;;;5099486;28;19908;-43
2022/12/28 09:36:15;;;;;;;;;;;17.30;82.60;;;;;;5117403;28;19923;-43
2022/12/28 09:38:41;;;;;;;;;;;17.30;82.70;;;;;;5117820;28;19973;-43
2022/12/28 09:41:11;;;;;;;;;;;17.30;82.70;;;;;;5117605;28;20014;-43
2022/12/28 09:43:39;;;;;;;;;;;17.30;82.70;;;;;;5117256;28;19908;-43
2022/12/28 09:46:04;;;;;;;;;;;17.30;82.70;;;;;;5099245;28;19915;-42
2022/12/28 09:48:30;;;;;;;;;;;17.40;82.70;;;;;;5117072;28;20355;-42
2022/12/28 09:50:55;;;;;;;;;;;17.40;82.70;;;;;;5117052;28;19915;-43
2022/12/28 09:53:25;;;;;;;;;;;17.40;82.60;;;;;;5117419;28;20386;-43
2022/12/28 09:55:58;;;;;;;;;;;17.40;82.60;;;;;;5117252;28;20309;-45
2022/12/28 09:58:24;;;;;;;;;;;17.50;82.50;;;;;;5117356;28;19908;-45
2022/12/28 10:00:53;;;;;;;;;;;17.50;82.40;;;;;;5117190;28;19908;-43
2022/12/28 10:03:20;;;;;;;;;;;17.50;82.30;;;;;;5117007;28;20002;-43
2022/12/28 10:05:46;;;;;;;;;;;17.50;82.30;;;;;;5117155;28;19907;-43
2022/12/28 10:08:13;;;;;;;;;;;17.50;82.20;;;;;;5116940;28;19908;-46
2022/12/28 10:10:40;;;;;;;;;;;17.50;82.20;;;;;;5098748;28;19943;-43
2022/12/28 10:13:15;;;;;;;;;;;17.50;82.20;;;;;;5115987;28;19907;-43
2022/12/28 10:15:40;;;;;;;;;;;17.60;82.20;;;;;;5116525;28;19916;-43
2022/12/28 10:18:06;;;;;;;;;;;17.60;82.20;;;;;;5117134;28;20338;-44
2022/12/28 10:20:32;;;;;;;;;;;17.50;82.20;;;;;;5116545;28;19908;-43
2022/12/28 10:22:58;;;;;;;;;;;17.50;82.20;;;;;;5116715;28;19960;-43
2022/12/28 10:25:24;;;;;;;;;;;17.50;82.30;;;;;;5116304;28;19912;-43
2022/12/28 10:27:50;;;;;;;;;;;17.50;82.30;;;;;;5116442;28;19914;-46
2022/12/28 10:30:16;;;;;;;;;;;17.50;82.30;;;;;;5116413;28;19908;-46
2022/12/28 10:32:49;;;;;;;;;;;17.40;82.30;;;;;;5116555;28;19957;-45
2022/12/28 10:35:21;;;;;;;;;;;17.50;82.40;;;;;;5116126;28;19916;-44
2022/12/28 10:37:47;;;;;;;;;;;17.50;82.40;;;;;;5115650;28;20374;-46
2022/12/28 10:40:24;;;;;;;;;;;17.40;82.40;;;;;;5116701;28;19908;-45
2022/12/28 10:42:53;;;;;;;;;;;17.40;82.50;;;;;;5116234;28;19951;-44
2022/12/28 10:45:24;;;;;;;;;;;17.40;82.50;;;;;;5116193;28;19957;-44
2022/12/28 10:47:51;;;;;;;;;;;17.40;82.60;;;;;;5116290;28;19908;-43
2022/12/28 10:50:35;;;;;;;;;;;17.40;82.60;;;;;;5116411;28;19911;-43
2022/12/28 10:53:01;;;;;;;;;;;17.40;82.60;;;;;;5115849;28;19947;-44
2022/12/28 10:55:28;;;;;;;;;;;17.40;82.60;;;;;;5097302;28;19958;-44
2022/12/28 10:57:53;;;;;;;;;;;17.30;82.70;;;;;;5116011;28;19997;-44
2022/12/28 11:00:20;;;;;;;;;;;17.30;82.70;;;;;;5116119;28;19912;-47
2022/12/28 11:02:45;;;;;;;;;;;17.30;82.70;;;;;;5115468;28;19919;-45
2022/12/28 11:05:18;;;;;;;;;;;17.30;82.70;;;;;;5115427;28;19911;-45
2022/12/28 11:07:44;;;;;;;;;;;17.30;82.70;;;;;;5115944;28;19957;-44
2022/12/28 11:10:29;;;;;;;;;;;17.40;82.80;;;;;;5115831;28;19912;-44
2022/12/28 11:12:55;;;;;;;;;;;17.30;82.70;;;;;;5115721;28;19962;-46
2022/12/28 11:15:23;;;;;;;;;;;17.40;82.70;;;;;;5115433;28;19920;-44
2022/12/28 11:17:52;;;;;;;;;;;17.30;82.70;;;;;;5115407;28;19911;-45
2022/12/28 11:20:19;;;;;;;;;;;17.40;82.70;;;;;;5115463;28;19907;-46
2022/12/28 11:22:44;;;;;;;;;;;17.40;82.70;;;;;;5115427;28;19908;-44
2022/12/28 11:25:13;;;;;;;;;;;17.40;82.70;;;;;;5114185;28;20282;-44
2022/12/28 11:27:39;;;;;;;;;;;17.40;82.60;;;;;;5115388;28;19912;-43
2022/12/28 11:30:05;;;;;;;;;;;17.40;82.60;;;;;;5114934;28;20006;-43
2022/12/28 11:32:33;;;;;;;;;;;17.40;82.60;;;;;;5115583;28;19912;-43
2022/12/28 11:34:59;;;;;;;;;;;17.40;82.60;;;;;;5115079;28;19920;-44
2022/12/28 11:37:24;;;;;;;;;;;17.40;82.60;;;;;;5115064;28;19908;-44
2022/12/28 11:39:51;;;;;;;;;;;17.40;82.60;;;;;;5096930;28;19908;-45
2022/12/28 11:42:31;;;;;;;;;;;17.40;82.60;;;;;;5114976;28;19911;-44
2022/12/28 11:44:57;;;;;;;;;;;17.40;82.60;;;;;;5114969;28;20278;-43
2022/12/28 11:47:29;;;;;;;;;;;17.40;82.60;;;;;;5114820;28;20002;-43
2022/12/28 11:50:15;;;;;;;;;;;17.40;82.70;;;;;;5114868;28;19911;-43
2022/12/28 11:52:43;;;;;;;;;;;17.40;82.70;;;;;;5114238;28;19937;-44
2022/12/28 11:55:22;;;;;;;;;;;17.40;82.70;;;;;;5115222;28;19927;-43
2022/12/28 11:57:47;;;;;;;;;;;17.40;82.70;;;;;;5096102;28;19912;-42
2022/12/28 12:00:15;;;;;;;;;;;17.40;82.70;;;;;;5114674;28;19916;-44
2022/12/28 12:02:46;;;;;;;;;;;17.30;82.70;;;;;;5114441;28;19907;-43
2022/12/28 12:05:30;;;;;;;;;;;17.40;82.80;;;;;;5114738;28;19915;-43
2022/12/28 12:07:55;;;;;;;;;;;17.30;82.80;;;;;;5114227;28;19916;-42
2022/12/28 12:10:32;;;;;;;;;;;17.30;82.80;;;;;;5114514;28;19908;-42
2022/12/28 12:12:58;;;;;;;;;;;17.30;82.80;;;;;;5114170;28;19907;-44
2022/12/28 12:15:27;;;;;;;;;;;17.30;82.80;;;;;;5113977;28;19924;-44
2022/12/28 12:17:56;;;;;;;;;;;17.30;82.90;;;;;;5114670;28;19969;-44
2022/12/28 12:20:40;;;;;;;;;;;17.30;82.90;;;;;;5114719;28;19915;-44
2022/12/28 12:23:08;;;;;;;;;;;17.30;82.90;;;;;;5114758;28;19908;-43
2022/12/28 12:25:33;;;;;;;;;;;17.30;82.90;;;;;;5095935;28;19915;-44
2022/12/28 12:28:05;;;;;;;;;;;17.30;82.90;;;;;;5114079;28;20346;-44
2022/12/28 12:30:31;;;;;;;;;;;17.30;82.90;;;;;;5114429;28;19915;-44
2022/12/28 12:33:05;;;;;;;;;;;17.30;82.90;;;;;;5113955;28;19908;-43
2022/12/28 12:35:40;;;;;;;;;;;17.30;82.90;;;;;;5114086;28;19916;-47
2022/12/28 12:38:06;;;;;;;;;;;17.30;82.90;;;;;;5114208;28;19946;-45
2022/12/28 12:40:31;;;;;;;;;;;17.30;82.80;;;;;;5114259;28;19908;-44
2022/12/28 12:43:12;;;;;;;;;;;17.30;82.80;;;;;;5114311;28;19908;-43
2022/12/28 12:45:44;;;;;;;;;;;17.30;82.80;;;;;;5113909;28;19907;-45
2022/12/28 12:48:15;;;;;;;;;;;17.30;82.80;;;;;;5114315;28;19908;-45
2022/12/28 12:50:41;;;;;;;;;;;17.30;82.80;;;;;;5113835;28;19961;-45
2022/12/28 12:53:24;;;;;;;;;;;17.30;82.80;;;;;;5113727;28;19911;-46
2022/12/28 12:56:01;;;;;;;;;;;17.30;82.80;;;;;;5113509;28;20349;-46
2022/12/28 12:58:47;;;;;;;;;;;17.30;82.80;;;;;;5114061;28;20326;-43
2022/12/28 13:01:18;;;;;;;;;;;17.30;82.80;;;;;;5114121;28;19908;-47
2022/12/28 13:03:48;;;;;;;;;;;17.30;82.80;;;;;;5114020;28;19908;-44
2022/12/28 13:06:15;;;;;;;;;;;17.30;82.90;;;;;;5114038;28;19908;-45
2022/12/28 13:08:46;;;;;;;;;;;17.30;82.80;;;;;;5113555;28;20384;-45
2022/12/28 13:11:13;;;;;;;;;;;17.30;82.90;;;;;;5114387;28;19916;-45
2022/12/28 13:13:39;;;;;;;;;;;17.30;82.90;;;;;;5113625;28;20362;-44
2022/12/28 13:16:09;;;;;;;;;;;17.30;82.90;;;;;;5113393;28;19920;-44
2022/12/28 13:18:35;;;;;;;;;;;17.30;82.90;;;;;;5113852;28;20288;-45
2022/12/28 13:21:01;;;;;;;;;;;17.30;82.90;;;;;;5095553;28;19908;-46
2022/12/28 13:23:28;;;;;;;;;;;17.30;82.90;;;;;;5113562;28;19940;-44
2022/12/28 13:25:55;;;;;;;;;;;17.30;83.00;;;;;;5113743;28;20377;-45
2022/12/28 13:28:29;;;;;;;;;;;17.30;83.00;;;;;;5113696;28;19908;-43
2022/12/28 13:31:06;;;;;;;;;;;17.30;83.00;;;;;;5113718;28;19912;-45
2022/12/28 13:33:31;;;;;;;;;;;17.20;83.00;;;;;;5113863;28;19915;-45
2022/12/28 13:36:17;;;;;;;;;;;17.30;83.00;;;;;;5095473;28;19915;-46
2022/12/28 13:38:43;;;;;;;;;;;17.30;83.10;;;;;;5112702;28;19919;-45
2022/12/28 13:41:21;;;;;;;;;;;17.30;83.10;;;;;;5113681;28;19918;-43
2022/12/28 13:44:07;;;;;;;;;;;17.20;83.10;;;;;;5113734;28;19998;-44
2022/12/28 13:46:34;;;;;;;;;;;17.20;83.10;;;;;;5094986;28;19914;-44
2022/12/28 13:48:59;;;;;;;;;;;17.20;83.10;;;;;;5116943;28;19953;-47
2022/12/28 13:51:25;;;;;;;;;;;17.20;83.10;;;;;;5117433;28;19988;-45
2022/12/28 13:53:53;;;;;;;;;;;17.30;83.10;;;;;;5117337;28;19907;-42
2022/12/28 13:56:19;;;;;;;;;;;17.20;83.10;;;;;;5116753;28;19923;-42
2022/12/28 13:58:48;;;;;;;;;;;17.20;83.10;;;;;;5116629;28;20426;-44
2022/12/28 14:01:16;;;;;;;;;;;17.20;83.10;;;;;;5117380;28;19908;-45
2022/12/28 14:03:42;;;;;;;;;;;17.20;83.10;;;;;;5098543;28;19934;-43
2022/12/28 14:06:08;;;;;;;;;;;17.20;83.10;;;;;;5117059;28;19907;-43
2022/12/28 14:08:35;;;;;;;;;;;17.20;83.10;;;;;;5116610;28;19915;-43
2022/12/28 14:11:01;;;;;;;;;;;17.20;83.00;;;;;;5098766;28;20259;-44
2022/12/28 14:13:29;;;;;;;;;;;17.20;83.00;;;;;;5116916;28;19953;-44
2022/12/28 14:15:55;;;;;;;;;;;17.20;83.00;;;;;;5116220;28;19962;-46
2022/12/28 14:18:20;;;;;;;;;;;17.20;83.00;;;;;;5098317;28;19941;-47
2022/12/28 14:20:47;;;;;;;;;;;17.20;83.00;;;;;;5116289;28;20262;-43
2022/12/28 14:23:26;;;;;;;;;;;17.20;83.00;;;;;;5116548;28;19946;-43
2022/12/28 14:25:52;;;;;;;;;;;17.20;83.00;;;;;;5116574;28;19908;-48
2022/12/28 14:28:22;;;;;;;;;;;17.20;83.00;;;;;;5116332;28;19907;-43
2022/12/28 14:30:52;;;;;;;;;;;17.20;83.00;;;;;;5116160;28;19927;-43
2022/12/28 14:33:19;;;;;;;;;;;17.20;83.00;;;;;;5116291;28;20200;-44
2022/12/28 14:35:46;;;;;;;;;;;17.20;83.00;;;;;;5116409;28;19916;-46
2022/12/28 14:38:16;;;;;;;;;;;17.20;83.00;;;;;;5116201;28;19923;-45
2022/12/28 14:40:41;;;;;;;;;;;17.20;83.00;;;;;;5116327;28;19915;-43
2022/12/28 14:43:17;;;;;;;;;;;17.20;83.00;;;;;;5097966;28;19908;-46
2022/12/28 14:45:46;;;;;;;;;;;17.20;83.10;;;;;;5116179;28;19955;-44
2022/12/28 14:48:31;;;;;;;;;;;17.20;83.10;;;;;;5116139;28;19953;-43